Time;durP1;ratioP1;P1;durP2;ratioP2;P2;SDS_P1;SDS_P2;PMS_P1;PMS_P2;Temp;Humidity;BMP_temperature;BMP_pressure;BME280_temperature;BME280_humidity;BME280_pressure;Samples;Min_cycle;Max_cycle;Signal;HPM_P1;HPM_P2
2021/10/07 00:02:14;;;;;;;2.28;1.70;;;14.20;72.50;;;;;;4884879;29;20099;-86
2021/10/07 00:04:40;;;;;;;2.85;1.90;;;14.20;72.50;;;;;;4870132;29;20059;-86
2021/10/07 00:07:06;;;;;;;2.63;1.80;;;14.20;72.50;;;;;;4881959;29;20113;-87
2021/10/07 00:09:32;;;;;;;2.42;1.90;;;14.20;72.50;;;;;;4867507;29;20037;-86
2021/10/07 00:11:58;;;;;;;2.42;1.85;;;14.20;72.50;;;;;;4867226;29;20033;-87
2021/10/07 00:14:24;;;;;;;2.20;1.80;;;14.20;72.50;;;;;;4882227;29;20085;-87
2021/10/07 00:16:50;;;;;;;1.85;1.65;;;14.20;72.60;;;;;;4866678;29;20053;-86
2021/10/07 00:19:16;;;;;;;2.45;1.90;;;14.20;72.60;;;;;;4913155;29;20037;-87
2021/10/07 00:21:42;;;;;;;3.45;2.20;;;14.10;72.50;;;;;;4881702;29;20128;-86
2021/10/07 00:24:08;;;;;;;2.28;1.90;;;14.10;72.60;;;;;;4881443;29;20124;-86
2021/10/07 00:26:42;;;;;;;2.75;1.98;;;14.10;72.60;;;;;;4898133;29;20033;-87
2021/10/07 00:31:43;;;;;;;2.35;1.85;;;14.10;72.60;;;;;;4882741;29;20061;-88
2021/10/07 00:34:43;;;;;;;2.70;1.80;;;14.10;72.60;;;;;;4881599;29;20036;-87
2021/10/07 00:39:23;;;;;;;2.05;1.83;;;14.10;72.60;;;;;;4882495;29;20040;-87
2021/10/07 00:41:51;;;;;;;2.83;2.08;;;14.00;72.60;;;;;;4866323;29;20037;-87
2021/10/07 00:44:17;;;;;;;2.30;1.90;;;14.10;72.70;;;;;;4881363;29;20173;-87
2021/10/07 00:46:54;;;;;;;2.70;2.10;;;14.10;72.70;;;;;;4866335;29;20092;-87
2021/10/07 00:49:22;;;;;;;2.47;1.92;;;14.10;72.80;;;;;;4913107;29;20036;-87
2021/10/07 00:51:48;;;;;;;1.92;1.73;;;14.00;72.70;;;;;;4881983;29;20029;-88
2021/10/07 00:54:16;;;;;;;2.50;1.98;;;14.00;72.70;;;;;;4881792;29;20044;-87
2021/10/07 00:56:43;;;;;;;2.75;1.98;;;14.00;72.80;;;;;;4882370;29;20445;-87
2021/10/07 00:59:10;;;;;;;2.17;1.95;;;14.00;72.80;;;;;;4880966;29;20117;-86
2021/10/07 01:01:36;;;;;;;1.77;1.58;;;14.00;72.80;;;;;;4880944;29;20409;-86
2021/10/07 01:04:03;;;;;;;2.25;1.80;;;14.00;72.80;;;;;;4881279;29;20106;-86
2021/10/07 01:06:29;;;;;;;2.72;1.88;;;14.00;72.90;;;;;;4912510;29;20112;-88
2021/10/07 01:08:55;;;;;;;2.53;1.92;;;14.00;72.90;;;;;;4881334;29;20105;-88
2021/10/07 01:11:21;;;;;;;2.92;2.00;;;14.00;72.90;;;;;;4850772;29;20045;-88
2021/10/07 01:13:47;;;;;;;2.63;1.95;;;14.00;72.90;;;;;;4880725;29;20037;-88
2021/10/07 01:16:13;;;;;;;2.05;1.80;;;14.00;72.90;;;;;;4881084;29;20029;-88
2021/10/07 01:18:38;;;;;;;2.17;1.80;;;14.00;72.90;;;;;;4881080;29;20483;-88
2021/10/07 01:21:11;;;;;;;2.35;1.65;;;14.00;73.00;;;;;;4880403;29;20100;-88
2021/10/07 01:23:39;;;;;;;2.22;1.75;;;14.00;73.10;;;;;;4896649;29;20533;-87
2021/10/07 01:26:07;;;;;;;2.90;1.90;;;14.00;73.00;;;;;;4896578;29;20033;-88
2021/10/07 01:28:33;;;;;;;2.03;1.77;;;14.00;73.00;;;;;;4880678;29;20037;-87
2021/10/07 01:30:58;;;;;;;2.05;1.85;;;14.00;73.10;;;;;;4881629;29;20044;-87
2021/10/07 01:33:24;;;;;;;2.28;2.03;;;14.00;73.10;;;;;;4896460;29;20105;-87
2021/10/07 01:35:50;;;;;;;1.98;1.77;;;14.00;73.10;;;;;;4849569;29;20474;-86
2021/10/07 01:38:16;;;;;;;2.38;1.90;;;14.00;73.10;;;;;;4864968;29;20068;-86
2021/10/07 01:40:42;;;;;;;3.08;2.10;;;14.00;73.10;;;;;;4880182;29;20033;-85
2021/10/07 01:43:07;;;;;;;2.35;1.90;;;14.00;73.10;;;;;;4882033;29;20033;-85
2021/10/07 01:45:33;;;;;;;2.30;1.77;;;14.00;73.10;;;;;;4911371;29;20037;-86
2021/10/07 01:47:59;;;;;;;2.83;1.92;;;14.00;73.10;;;;;;4896451;29;20092;-86
2021/10/07 01:50:25;;;;;;;1.83;1.67;;;14.00;73.10;;;;;;4850015;29;20158;-87
2021/10/07 01:52:50;;;;;;;1.92;1.67;;;14.00;73.20;;;;;;4881892;29;20536;-88
2021/10/07 01:55:16;;;;;;;2.85;2.05;;;14.00;73.20;;;;;;4880252;29;20029;-87
2021/10/07 01:57:42;;;;;;;3.13;2.15;;;14.00;73.20;;;;;;4865611;29;20037;-85
2021/10/07 02:00:10;;;;;;;2.70;2.03;;;14.00;73.20;;;;;;4880840;29;20430;-86
2021/10/07 02:02:38;;;;;;;2.47;1.85;;;14.00;73.30;;;;;;4865084;29;20033;-86
2021/10/07 02:05:05;;;;;;;3.05;2.17;;;14.00;73.20;;;;;;4880493;29;20115;-87
2021/10/07 02:07:30;;;;;;;2.67;2.20;;;14.00;73.30;;;;;;4895419;29;20080;-85
2021/10/07 02:09:56;;;;;;;2.67;2.13;;;14.00;73.30;;;;;;4864689;29;20087;-87
2021/10/07 02:12:22;;;;;;;2.60;2.00;;;14.00;73.30;;;;;;4864638;29;20053;-88
2021/10/07 02:14:48;;;;;;;2.72;2.10;;;14.00;73.30;;;;;;4864456;29;20092;-87
2021/10/07 02:17:13;;;;;;;2.78;1.85;;;14.00;73.30;;;;;;4849610;29;20033;-86
2021/10/07 02:19:39;;;;;;;2.60;2.00;;;14.00;73.30;;;;;;4865506;29;20048;-87
2021/10/07 02:22:05;;;;;;;2.88;2.10;;;14.00;73.40;;;;;;4864970;29;20037;-87
2021/10/07 02:24:31;;;;;;;2.42;1.70;;;14.00;73.40;;;;;;4883337;29;20039;-87
2021/10/07 02:26:56;;;;;;;2.65;2.03;;;14.00;73.40;;;;;;4886401;29;20033;-86
2021/10/07 02:29:22;;;;;;;2.38;1.95;;;14.00;73.40;;;;;;4855493;29;20041;-86
2021/10/07 02:31:48;;;;;;;2.40;1.70;;;14.00;73.40;;;;;;4871047;29;20040;-86
2021/10/07 02:34:14;;;;;;;2.38;1.95;;;14.00;73.40;;;;;;4886027;29;20104;-87
2021/10/07 02:36:39;;;;;;;2.55;2.00;;;14.00;73.40;;;;;;4885962;29;20049;-87
2021/10/07 02:39:05;;;;;;;2.22;1.73;;;14.00;73.40;;;;;;4855261;29;20085;-86
2021/10/07 02:41:32;;;;;;;2.38;1.92;;;14.00;73.40;;;;;;4871587;29;20041;-87
2021/10/07 02:43:58;;;;;;;1.85;1.70;;;14.00;73.50;;;;;;4917761;29;20064;-87
2021/10/07 02:46:24;;;;;;;2.50;1.90;;;14.00;73.50;;;;;;4870793;29;20032;-86
2021/10/07 02:48:50;;;;;;;2.97;2.28;;;14.00;73.50;;;;;;4871276;29;20458;-87
2021/10/07 02:51:16;;;;;;;2.58;2.03;;;14.00;73.40;;;;;;4885674;29;20071;-87
2021/10/07 02:53:42;;;;;;;2.58;1.98;;;14.00;73.50;;;;;;4855572;29;20076;-88
2021/10/07 02:56:08;;;;;;;1.95;1.75;;;14.00;73.50;;;;;;4870867;29;20025;-88
2021/10/07 02:58:34;;;;;;;2.22;1.90;;;14.00;73.50;;;;;;4886123;29;20037;-88
2021/10/07 03:01:00;;;;;;;2.20;1.90;;;14.00;73.50;;;;;;4887032;29;20174;-88
2021/10/07 03:03:26;;;;;;;2.10;1.90;;;14.00;73.70;;;;;;4870507;29;20040;-87
2021/10/07 03:05:52;;;;;;;2.30;1.90;;;14.00;73.50;;;;;;4871276;29;20036;-87
2021/10/07 03:08:18;;;;;;;2.35;1.98;;;14.00;73.50;;;;;;4870212;29;20488;-87
2021/10/07 03:10:44;;;;;;;2.00;1.80;;;14.00;73.50;;;;;;4887739;29;20045;-88
2021/10/07 03:13:10;;;;;;;2.33;1.90;;;14.00;73.50;;;;;;4870828;29;20084;-87
2021/10/07 03:15:35;;;;;;;2.30;1.90;;;14.00;73.50;;;;;;4917130;29;20033;-88
2021/10/07 03:18:03;;;;;;;2.42;1.90;;;14.00;73.50;;;;;;4886004;29;20093;-88
2021/10/07 03:20:28;;;;;;;2.33;1.95;;;14.00;73.50;;;;;;4854885;29;20041;-86
2021/10/07 03:22:54;;;;;;;2.13;1.80;;;14.00;73.50;;;;;;4887088;29;20041;-86
2021/10/07 03:25:21;;;;;;;2.15;1.80;;;14.00;73.50;;;;;;4886917;29;20040;-86
2021/10/07 03:27:46;;;;;;;2.50;2.00;;;14.00;73.50;;;;;;4886380;29;20033;-86
2021/10/07 03:30:12;;;;;;;2.00;1.80;;;14.00;73.50;;;;;;4854456;29;20100;-86
2021/10/07 03:32:38;;;;;;;2.00;1.80;;;14.00;73.50;;;;;;4885635;29;20048;-86
2021/10/07 03:35:04;;;;;;;1.98;1.60;;;14.00;73.60;;;;;;4885370;29;20482;-86
2021/10/07 03:37:30;;;;;;;1.95;1.75;;;14.00;73.50;;;;;;4897990;29;20032;-86
2021/10/07 03:39:56;;;;;;;2.20;1.90;;;14.00;73.50;;;;;;4867678;29;20048;-86
2021/10/07 03:42:24;;;;;;;2.30;1.98;;;14.00;73.50;;;;;;4882563;29;20111;-86
2021/10/07 03:44:50;;;;;;;1.80;1.70;;;14.00;73.60;;;;;;4867419;29;20029;-86
2021/10/07 03:47:16;;;;;;;2.13;1.92;;;14.00;73.50;;;;;;4851484;29;20043;-86
2021/10/07 03:49:41;;;;;;;2.15;1.95;;;14.00;73.60;;;;;;4883545;29;20485;-87
2021/10/07 03:52:07;;;;;;;2.03;1.80;;;14.00;74.20;;;;;;4866787;29;20109;-86
2021/10/07 03:54:33;;;;;;;2.00;1.80;;;14.00;73.60;;;;;;4867206;29;20432;-87
2021/10/07 03:56:58;;;;;;;2.33;1.88;;;14.00;73.60;;;;;;4866703;29;20034;-86
2021/10/07 03:59:24;;;;;;;1.95;1.70;;;14.00;73.60;;;;;;4851748;29;20060;-86
2021/10/07 04:01:50;;;;;;;2.28;1.88;;;14.00;73.60;;;;;;4898121;29;20486;-85
2021/10/07 04:04:16;;;;;;;2.22;2.00;;;14.00;73.60;;;;;;4897893;29;20033;-85
2021/10/07 04:06:41;;;;;;;2.17;1.85;;;14.00;73.60;;;;;;4882480;29;20032;-85
2021/10/07 04:09:07;;;;;;;1.75;1.65;;;14.00;73.60;;;;;;4901044;29;20033;-86
2021/10/07 04:11:33;;;;;;;3.17;1.80;;;14.00;73.60;;;;;;4885117;29;20041;-83
2021/10/07 04:13:59;;;;;;;1.88;1.65;;;14.00;73.60;;;;;;4885403;29;20052;-84
2021/10/07 04:16:26;;;;;;;1.92;1.77;;;14.00;73.70;;;;;;4885914;29;20025;-82
2021/10/07 04:18:51;;;;;;;1.85;1.65;;;14.00;73.60;;;;;;4900437;29;20071;-84
2021/10/07 04:21:18;;;;;;;3.15;2.08;;;14.00;74.30;;;;;;4884866;29;20379;-84
2021/10/07 04:23:44;;;;;;;2.30;1.90;;;14.00;73.60;;;;;;4885184;29;20055;-82
2021/10/07 04:26:10;;;;;;;2.10;1.90;;;14.00;73.70;;;;;;4900370;29;20032;-83
2021/10/07 04:28:36;;;;;;;2.00;1.80;;;14.00;73.70;;;;;;4885394;29;20033;-83
2021/10/07 04:31:02;;;;;;;2.15;1.90;;;14.00;73.70;;;;;;4869365;29;20041;-83
2021/10/07 04:33:28;;;;;;;2.58;2.10;;;14.00;73.70;;;;;;4901057;29;20481;-82
2021/10/07 04:35:53;;;;;;;2.50;2.00;;;14.00;73.70;;;;;;4868824;29;20072;-82
2021/10/07 04:38:19;;;;;;;2.47;2.15;;;14.00;73.70;;;;;;4885044;29;20036;-81
2021/10/07 04:40:45;;;;;;;2.40;2.17;;;14.00;74.30;;;;;;4868827;29;20123;-83
2021/10/07 04:43:11;;;;;;;2.10;1.90;;;14.00;73.70;;;;;;4869116;29;20021;-85
2021/10/07 04:45:36;;;;;;;2.40;2.00;;;14.00;73.70;;;;;;4870231;29;20097;-88
2021/10/07 04:48:02;;;;;;;2.28;1.92;;;14.00;73.70;;;;;;4869250;29;20048;-88
2021/10/07 04:50:28;;;;;;;2.28;1.90;;;14.00;73.70;;;;;;4901513;29;20033;-87
2021/10/07 04:52:54;;;;;;;2.15;1.95;;;14.00;73.70;;;;;;4884564;29;20040;-85
2021/10/07 04:55:20;;;;;;;2.10;1.88;;;14.00;73.70;;;;;;4868961;29;20359;-89
2021/10/07 04:57:45;;;;;;;2.00;1.80;;;14.00;73.70;;;;;;4869027;29;20474;-88
2021/10/07 05:00:11;;;;;;;2.58;2.10;;;14.00;73.70;;;;;;4884116;29;20490;-83
2021/10/07 05:02:42;;;;;;;2.35;2.00;;;14.00;73.70;;;;;;4899526;29;20037;-89
2021/10/07 05:05:09;;;;;;;2.40;1.92;;;14.00;73.70;;;;;;4884616;29;20029;-84
2021/10/07 05:07:35;;;;;;;2.13;1.83;;;14.00;73.70;;;;;;4868119;29;20056;-88
2021/10/07 05:10:02;;;;;;;2.30;1.95;;;14.00;73.70;;;;;;4868923;29;20044;-87
2021/10/07 05:12:27;;;;;;;2.50;1.90;;;14.00;73.70;;;;;;4884018;29;20029;-87
2021/10/07 05:14:53;;;;;;;2.33;1.95;;;14.00;73.70;;;;;;4899068;29;20088;-81
2021/10/07 05:17:19;;;;;;;2.72;2.20;;;14.00;73.70;;;;;;4883894;29;20029;-85
2021/10/07 05:19:44;;;;;;;2.10;1.90;;;14.00;73.70;;;;;;4884148;29;20119;-86
2021/10/07 05:22:10;;;;;;;2.00;1.77;;;14.00;73.70;;;;;;4883799;29;20032;-83
2021/10/07 05:24:36;;;;;;;1.95;1.70;;;14.00;73.70;;;;;;4867371;29;20033;-81
2021/10/07 05:27:02;;;;;;;2.28;1.90;;;14.00;73.70;;;;;;4867455;29;20037;-83
2021/10/07 05:29:28;;;;;;;2.45;2.03;;;14.00;73.70;;;;;;4868392;29;20385;-86
2021/10/07 05:31:54;;;;;;;2.67;1.90;;;13.90;73.60;;;;;;4900215;29;20073;-86
2021/10/07 05:34:19;;;;;;;2.50;2.08;;;14.00;73.70;;;;;;4883453;29;20390;-85
2021/10/07 05:36:46;;;;;;;1.92;1.73;;;13.90;73.60;;;;;;4883398;29;20064;-87
2021/10/07 05:39:12;;;;;;;1.77;1.67;;;13.90;73.60;;;;;;4900750;29;20076;-84
2021/10/07 05:41:38;;;;;;;2.42;1.98;;;13.90;73.60;;;;;;4883363;29;20044;-85
2021/10/07 05:44:09;;;;;;;1.90;1.70;;;13.90;73.70;;;;;;4867911;29;20060;-85
2021/10/07 05:46:35;;;;;;;2.00;1.73;;;13.90;73.70;;;;;;4884020;29;20091;-84
2021/10/07 05:49:01;;;;;;;1.75;1.65;;;13.90;73.60;;;;;;4898808;29;20029;-84
2021/10/07 05:51:27;;;;;;;1.65;1.55;;;13.90;73.70;;;;;;4899542;29;20464;-85
2021/10/07 05:53:53;;;;;;;2.05;1.80;;;13.90;73.60;;;;;;4899791;29;20039;-85
2021/10/07 05:56:18;;;;;;;2.10;1.80;;;13.90;73.60;;;;;;4867736;29;20443;-84
2021/10/07 05:58:44;;;;;;;1.65;1.52;;;13.90;73.60;;;;;;4867107;29;20044;-85
2021/10/07 06:01:11;;;;;;;1.90;1.77;;;13.90;73.60;;;;;;4867243;29;20087;-84
2021/10/07 06:03:36;;;;;;;1.75;1.55;;;13.90;73.70;;;;;;4882925;29;20473;-84
2021/10/07 06:06:02;;;;;;;1.85;1.70;;;13.90;73.70;;;;;;4883140;29;20136;-85
2021/10/07 06:08:28;;;;;;;1.73;1.60;;;13.90;73.70;;;;;;4867139;29;20139;-86
2021/10/07 06:10:54;;;;;;;1.85;1.65;;;13.90;73.70;;;;;;4883001;29;20041;-85
2021/10/07 06:13:20;;;;;;;2.30;1.70;;;13.90;73.70;;;;;;4867531;29;20478;-85
2021/10/07 06:15:45;;;;;;;2.05;1.70;;;13.90;73.70;;;;;;4899623;29;20033;-85
2021/10/07 06:18:11;;;;;;;1.70;1.60;;;13.90;73.70;;;;;;4898353;29;20470;-84
2021/10/07 06:20:38;;;;;;;2.10;1.88;;;13.90;73.70;;;;;;4899768;29;20096;-84
2021/10/07 06:23:05;;;;;;;2.22;1.90;;;13.90;73.70;;;;;;4883337;29;20044;-85
2021/10/07 06:25:32;;;;;;;1.88;1.70;;;13.90;73.70;;;;;;4882573;29;20036;-85
2021/10/07 06:27:57;;;;;;;1.50;1.40;;;13.90;73.70;;;;;;4882797;29;20033;-85
2021/10/07 06:30:23;;;;;;;1.58;1.48;;;13.90;73.70;;;;;;4867401;29;20128;-85
2021/10/07 06:32:49;;;;;;;1.70;1.60;;;13.90;73.70;;;;;;4882877;29;20036;-84
2021/10/07 06:35:16;;;;;;;2.10;1.67;;;13.80;73.70;;;;;;4882684;29;20037;-85
2021/10/07 06:37:42;;;;;;;1.80;1.70;;;13.80;73.80;;;;;;4867622;29;20064;-85
2021/10/07 06:40:09;;;;;;;1.70;1.60;;;13.90;74.40;;;;;;4867120;29;20428;-84
2021/10/07 06:42:35;;;;;;;1.52;1.42;;;13.80;73.70;;;;;;4883456;29;20032;-86
2021/10/07 06:45:04;;;;;;;1.63;1.52;;;13.80;73.70;;;;;;4883346;29;20108;-84
2021/10/07 06:47:30;;;;;;;1.50;1.35;;;13.80;73.70;;;;;;4883350;29;20028;-84
2021/10/07 06:49:56;;;;;;;1.98;1.70;;;13.80;73.70;;;;;;4867651;29;20040;-84
2021/10/07 06:52:22;;;;;;;1.67;1.58;;;13.80;73.70;;;;;;4867755;29;20025;-85
2021/10/07 06:54:47;;;;;;;1.60;1.50;;;13.80;73.70;;;;;;4882644;29;20056;-86
2021/10/07 06:57:13;;;;;;;1.70;1.60;;;13.80;73.70;;;;;;4899304;29;20029;-85
2021/10/07 06:59:39;;;;;;;1.73;1.63;;;13.80;73.70;;;;;;4867287;29;20029;-85
2021/10/07 07:02:05;;;;;;;1.58;1.48;;;13.80;73.70;;;;;;4882816;29;20037;-86
2021/10/07 07:04:30;;;;;;;1.90;1.70;;;13.80;74.40;;;;;;4867115;29;20546;-84
2021/10/07 07:06:56;;;;;;;1.73;1.60;;;13.80;73.70;;;;;;4897779;29;20036;-85
2021/10/07 07:09:22;;;;;;;2.60;1.95;;;13.80;73.70;;;;;;4883530;29;20080;-85
2021/10/07 07:11:48;;;;;;;1.60;1.50;;;13.80;73.70;;;;;;4885801;29;20063;-85
2021/10/07 07:14:15;;;;;;;2.03;1.70;;;13.80;73.70;;;;;;4886384;29;20496;-84
2021/10/07 07:16:40;;;;;;;1.90;1.80;;;13.80;73.70;;;;;;4886085;29;20033;-84
2021/10/07 07:19:08;;;;;;;2.10;1.73;;;13.80;73.70;;;;;;4886346;29;20047;-85
2021/10/07 07:21:34;;;;;;;1.77;1.67;;;13.80;73.80;;;;;;4902541;29;20117;-85
2021/10/07 07:24:02;;;;;;;2.47;1.90;;;13.80;73.70;;;;;;4871208;29;20036;-85
2021/10/07 07:26:29;;;;;;;2.17;1.95;;;13.80;73.70;;;;;;4871034;29;20045;-85
2021/10/07 07:28:55;;;;;;;2.22;1.80;;;13.80;73.80;;;;;;4886179;29;20036;-85
2021/10/07 07:31:23;;;;;;;1.70;1.60;;;13.80;73.80;;;;;;4885988;29;20076;-85
2021/10/07 07:33:48;;;;;;;2.15;1.73;;;13.80;73.80;;;;;;4917825;29;20028;-86
2021/10/07 07:36:15;;;;;;;2.42;1.60;;;13.80;73.80;;;;;;4871089;29;20120;-85
2021/10/07 07:38:42;;;;;;;1.98;1.77;;;13.80;73.90;;;;;;4917163;29;20037;-86
2021/10/07 07:41:10;;;;;;;2.10;1.85;;;13.80;73.90;;;;;;4885851;29;20036;-85
2021/10/07 07:43:36;;;;;;;2.47;2.05;;;13.80;73.90;;;;;;4901282;29;20469;-85
2021/10/07 07:46:02;;;;;;;2.08;1.85;;;13.80;73.90;;;;;;4885764;29;20040;-87
2021/10/07 07:48:27;;;;;;;2.33;2.10;;;13.80;73.90;;;;;;4901996;29;20033;-83
2021/10/07 07:50:53;;;;;;;2.25;1.92;;;13.80;74.50;;;;;;4869801;29;20477;-82
2021/10/07 07:53:19;;;;;;;2.38;2.03;;;13.80;73.90;;;;;;4870501;29;20020;-85
2021/10/07 07:55:45;;;;;;;2.17;1.80;;;13.80;73.90;;;;;;4870845;29;20091;-81
2021/10/07 07:58:12;;;;;;;3.08;2.25;;;13.80;73.90;;;;;;4884467;29;20035;-78
2021/10/07 08:00:39;;;;;;;2.67;2.17;;;13.90;73.90;;;;;;4901240;29;20474;-79
2021/10/07 08:03:05;;;;;;;2.55;2.15;;;13.80;73.90;;;;;;4885657;29;20160;-87
2021/10/07 08:05:31;;;;;;;2.70;2.03;;;13.90;74.00;;;;;;4869634;29;20041;-82
2021/10/07 08:07:59;;;;;;;2.33;2.10;;;13.90;74.00;;;;;;4870541;29;20060;-96
2021/10/07 08:10:26;;;;;;;2.22;2.03;;;13.90;74.00;;;;;;4886902;29;20071;-85
2021/10/07 08:12:52;;;;;;;3.35;2.40;;;13.90;74.00;;;;;;4900971;29;20123;-92
2021/10/07 08:15:18;;;;;;;3.42;2.30;;;13.90;74.00;;;;;;4885124;29;20068;-86
2021/10/07 08:17:44;;;;;;;3.33;2.53;;;13.90;74.00;;;;;;4885081;29;20509;-84
2021/10/07 08:20:12;;;;;;;2.30;2.10;;;13.90;74.00;;;;;;4884729;29;20128;-83
2021/10/07 08:22:39;;;;;;;2.47;2.28;;;13.90;74.00;;;;;;4869089;29;20397;-81
2021/10/07 08:25:06;;;;;;;3.20;2.40;;;13.90;74.00;;;;;;4869374;29;20040;-83
2021/10/07 08:27:32;;;;;;;2.55;1.95;;;13.90;74.00;;;;;;4901275;29;20056;-86
2021/10/07 08:29:58;;;;;;;2.88;2.40;;;14.00;74.00;;;;;;4869139;29;20044;-87
2021/10/07 08:32:24;;;;;;;2.75;2.42;;;14.00;74.00;;;;;;4915182;29;20044;-83
2021/10/07 08:34:50;;;;;;;3.15;2.55;;;14.00;74.00;;;;;;4914522;29;20037;-82
2021/10/07 08:37:16;;;;;;;3.55;2.63;;;14.00;74.00;;;;;;4914877;29;20139;-83
2021/10/07 08:39:42;;;;;;;3.22;2.45;;;14.00;74.00;;;;;;4899256;29;20038;-81
2021/10/07 08:42:08;;;;;;;4.10;3.08;;;14.00;74.00;;;;;;4915092;29;20068;-80
2021/10/07 08:44:34;;;;;;;3.92;2.75;;;14.00;74.00;;;;;;4898582;29;20043;-81
2021/10/07 08:47:00;;;;;;;3.42;2.70;;;14.00;74.00;;;;;;4899163;29;20036;-83
2021/10/07 08:49:29;;;;;;;4.60;3.17;;;14.00;74.00;;;;;;4898862;29;20032;-82
2021/10/07 08:51:56;;;;;;;4.82;3.42;;;14.00;74.00;;;;;;4899030;29;20048;-83
2021/10/07 08:54:21;;;;;;;4.80;3.50;;;14.10;74.00;;;;;;4899168;29;20033;-83
2021/10/07 08:56:48;;;;;;;4.05;3.10;;;14.10;74.00;;;;;;4898725;29;20047;-82
2021/10/07 08:59:14;;;;;;;4.13;2.88;;;14.10;74.00;;;;;;4898388;29;20036;-80
2021/10/07 09:01:42;;;;;;;4.13;3.00;;;14.10;74.00;;;;;;4914347;29;20036;-81
2021/10/07 09:04:38;;;;;;;4.95;3.30;;;14.10;74.00;;;;;;4887105;29;20032;-82
2021/10/07 09:07:09;;;;;;;5.03;3.40;;;14.20;74.20;;;;;;4883442;29;20056;-81
2021/10/07 09:09:38;;;;;;;5.07;3.35;;;14.20;74.00;;;;;;4915412;29;20037;-83
2021/10/07 09:12:10;;;;;;;5.35;3.67;;;14.20;74.00;;;;;;4883855;29;20035;-83
2021/10/07 09:14:41;;;;;;;5.00;3.58;;;14.20;74.10;;;;;;4883884;29;20029;-86
2021/10/07 09:17:10;;;;;;;4.65;3.30;;;14.20;74.00;;;;;;4884584;29;20062;-87
2021/10/07 09:19:46;;;;;;;5.05;3.53;;;14.20;74.00;;;;;;4884339;29;20048;-86
2021/10/07 09:22:13;;;;;;;4.57;3.35;;;14.20;74.20;;;;;;4868586;29;20127;-90
2021/10/07 09:24:47;;;;;;;5.15;3.42;;;14.30;74.10;;;;;;4884260;29;20182;-87
2021/10/07 09:27:23;;;;;;;4.07;2.90;;;14.30;74.10;;;;;;4883918;29;20111;-84
2021/10/07 09:29:52;;;;;;;4.82;3.90;;;14.30;74.10;;;;;;4883613;29;20025;-84
2021/10/07 09:32:37;;;;;;;4.75;3.38;;;14.30;74.00;;;;;;4883852;29;20115;-84
2021/10/07 09:35:06;;;;;;;4.75;3.50;;;14.30;74.20;;;;;;4868286;29;20032;-83
2021/10/07 09:37:43;;;;;;;5.50;3.92;;;14.40;74.10;;;;;;4868250;29;20033;-84
2021/10/07 09:40:16;;;;;;;4.57;3.35;;;14.40;74.10;;;;;;4900424;29;20036;-84
2021/10/07 09:42:47;;;;;;;5.07;3.63;;;14.40;74.10;;;;;;4884292;29;20192;-84
2021/10/07 09:45:25;;;;;;;5.70;4.10;;;14.40;74.10;;;;;;4883203;29;20127;-84
2021/10/07 09:47:53;;;;;;;5.30;3.55;;;14.40;74.10;;;;;;4883605;29;20040;-85
2021/10/07 09:50:26;;;;;;;5.35;3.67;;;14.50;74.10;;;;;;4915732;29;20036;-84
2021/10/07 09:53:14;;;;;;;4.82;3.60;;;14.50;74.10;;;;;;4868339;29;20028;-84
2021/10/07 09:55:45;;;;;;;5.55;3.85;;;14.50;74.20;;;;;;4900786;29;20111;-85
2021/10/07 09:58:16;;;;;;;5.25;3.70;;;14.50;73.90;;;;;;4868275;29;20119;-84
2021/10/07 10:00:50;;;;;;;5.38;3.67;;;14.60;74.60;;;;;;4883661;29;20138;-84
2021/10/07 10:03:17;;;;;;;5.22;3.47;;;14.60;74.10;;;;;;4898756;29;20080;-84
2021/10/07 10:05:44;;;;;;;5.30;3.75;;;14.60;73.90;;;;;;4883360;29;20040;-84
2021/10/07 10:08:16;;;;;;;5.50;3.70;;;14.70;74.00;;;;;;4900777;29;20492;-85
2021/10/07 10:10:44;;;;;;;5.07;3.72;;;14.70;74.00;;;;;;4868339;29;20036;-84
2021/10/07 10:13:11;;;;;;;5.13;3.72;;;14.70;73.90;;;;;;4883525;29;20123;-84
2021/10/07 10:15:37;;;;;;;5.55;3.85;;;14.70;73.90;;;;;;4868150;29;20063;-84
2021/10/07 10:18:07;;;;;;;5.32;3.50;;;14.70;73.90;;;;;;4883338;29;20036;-84
2021/10/07 10:20:37;;;;;;;7.05;4.15;;;14.80;73.90;;;;;;4883407;29;20036;-83
2021/10/07 10:23:10;;;;;;;4.93;3.53;;;14.80;73.90;;;;;;4883990;29;20100;-84
2021/10/07 10:25:51;;;;;;;5.13;3.33;;;14.80;73.90;;;;;;4883467;29;20039;-85
2021/10/07 10:28:26;;;;;;;5.00;3.38;;;14.80;73.90;;;;;;4899960;29;20029;-82
2021/10/07 10:31:02;;;;;;;5.22;3.75;;;14.80;73.80;;;;;;4882890;29;20045;-83
2021/10/07 10:33:33;;;;;;;5.38;3.97;;;14.90;73.90;;;;;;4882800;29;20028;-84
2021/10/07 10:35:59;;;;;;;4.95;3.40;;;14.90;73.80;;;;;;4883237;29;20033;-84
2021/10/07 10:38:27;;;;;;;5.80;3.80;;;14.90;73.80;;;;;;4883371;29;20032;-84
2021/10/07 10:40:54;;;;;;;5.55;3.88;;;14.90;73.80;;;;;;4882709;29;20040;-85
2021/10/07 10:43:30;;;;;;;5.57;4.10;;;14.90;73.80;;;;;;4900191;29;20041;-85
2021/10/07 10:46:02;;;;;;;5.05;3.95;;;14.90;73.80;;;;;;4902784;29;20032;-86
2021/10/07 10:48:49;;;;;;;4.95;3.63;;;15.00;73.80;;;;;;4886890;29;20462;-83
2021/10/07 10:51:18;;;;;;;4.85;3.55;;;15.00;73.90;;;;;;4887609;29;20043;-82
2021/10/07 10:54:02;;;;;;;5.53;4.10;;;15.00;73.70;;;;;;4902988;29;20035;-90
2021/10/07 10:56:37;;;;;;;5.53;3.97;;;15.10;73.90;;;;;;4872146;29;20036;-89
2021/10/07 10:59:24;;;;;;;5.97;4.07;;;15.10;74.40;;;;;;4887855;29;20029;-89
2021/10/07 11:02:18;;;;;;;5.40;4.00;;;15.10;73.90;;;;;;4887558;29;20073;-87
2021/10/07 11:04:47;;;;;;;4.47;3.37;;;15.10;73.90;;;;;;4918675;29;20059;-87
2021/10/07 11:07:17;;;;;;;4.75;3.50;;;15.10;73.60;;;;;;4903657;29;20036;-87
2021/10/07 11:10:13;;;;;;;5.05;3.80;;;15.20;73.70;;;;;;4871831;29;20033;-87
2021/10/07 11:12:44;;;;;;;5.13;3.70;;;15.20;73.80;;;;;;4887005;29;20076;-89
2021/10/07 11:15:11;;;;;;;5.70;4.07;;;15.20;73.70;;;;;;4871830;29;20124;-87
2021/10/07 11:17:44;;;;;;;5.65;3.78;;;15.20;73.60;;;;;;4886767;29;20025;-87
2021/10/07 11:20:17;;;;;;;4.40;3.40;;;15.30;73.80;;;;;;4902194;29;20496;-88
2021/10/07 11:23:03;;;;;;;5.18;3.70;;;15.30;73.70;;;;;;4887160;29;20037;-88
2021/10/07 11:25:30;;;;;;;4.88;3.67;;;15.30;73.80;;;;;;4886154;29;20040;-88
2021/10/07 11:27:56;;;;;;;5.93;4.40;;;15.30;73.60;;;;;;4903301;29;20028;-87
2021/10/07 11:30:24;;;;;;;5.70;4.03;;;15.30;73.60;;;;;;4902458;29;20041;-88
2021/10/07 11:32:50;;;;;;;5.43;4.03;;;15.30;73.60;;;;;;4870958;29;20127;-88
2021/10/07 11:35:19;;;;;;;5.80;4.55;;;15.40;73.60;;;;;;4871188;29;20143;-89
2021/10/07 11:38:13;;;;;;;5.30;3.92;;;15.40;73.60;;;;;;4903024;29;20043;-88
2021/10/07 11:40:44;;;;;;;5.05;3.97;;;15.40;73.60;;;;;;4917618;29;20166;-88
2021/10/07 11:43:19;;;;;;;5.07;3.50;;;15.40;73.50;;;;;;4870759;29;20127;-88
2021/10/07 11:45:46;;;;;;;;;;;15.40;73.40;;;;;;4887287;29;20458;-88
2021/10/07 11:48:13;;;;;;;4.65;3.25;;;15.50;73.40;;;;;;4886675;29;19914;-89
2021/10/07 11:50:42;;;;;;;4.85;3.60;;;15.50;73.30;;;;;;4886557;29;20028;-87
2021/10/07 11:53:11;;;;;;;5.45;4.13;;;15.50;73.50;;;;;;4870296;29;20059;-88
2021/10/07 11:55:43;;;;;;;5.57;4.13;;;15.50;73.40;;;;;;4885743;29;20045;-88
2021/10/07 11:58:09;;;;;;;4.57;3.78;;;15.50;73.40;;;;;;4885997;29;20092;-88
2021/10/07 12:00:40;;;;;;;5.68;4.20;;;15.60;73.40;;;;;;4916987;29;20041;-86
2021/10/07 12:03:10;;;;;;;5.38;3.92;;;15.60;73.40;;;;;;4885642;29;20520;-87
2021/10/07 12:05:36;;;;;;;5.78;4.28;;;15.60;73.40;;;;;;4902470;29;20036;-86
2021/10/07 12:08:02;;;;;;;6.53;4.72;;;15.60;73.30;;;;;;4869920;29;20059;-86
2021/10/07 12:10:36;;;;;;;5.97;4.57;;;15.60;73.30;;;;;;4870080;29;20045;-87
2021/10/07 12:13:23;;;;;;;5.43;4.47;;;15.70;73.40;;;;;;4885263;29;20036;-87
2021/10/07 12:15:55;;;;;;;5.53;4.22;;;15.70;73.40;;;;;;4870266;29;20292;-87
2021/10/07 12:18:24;;;;;;;5.60;4.35;;;15.70;73.30;;;;;;4882630;29;20043;-85
2021/10/07 12:20:58;;;;;;;6.25;4.28;;;15.70;73.90;;;;;;4885771;29;20029;-87
2021/10/07 12:23:24;;;;;;;5.75;4.32;;;15.70;73.30;;;;;;4870905;29;20075;-87
2021/10/07 12:25:55;;;;;;;5.80;4.25;;;15.80;73.20;;;;;;4870145;29;20036;-87
2021/10/07 12:28:21;;;;;;;5.82;4.22;;;15.80;73.30;;;;;;4870404;29;20028;-87
2021/10/07 12:30:53;;;;;;;6.05;4.57;;;15.80;73.20;;;;;;4869782;29;20033;-86
2021/10/07 12:33:20;;;;;;;5.70;4.28;;;15.80;73.20;;;;;;4885059;29;20084;-87
2021/10/07 12:36:06;;;;;;;6.63;4.72;;;15.80;73.10;;;;;;4869463;29;20032;-87
2021/10/07 12:38:53;;;;;;;6.07;4.40;;;15.90;73.30;;;;;;4870066;29;20033;-88
2021/10/07 12:41:40;;;;;;;5.82;4.55;;;15.90;73.30;;;;;;4885242;29;20065;-87
2021/10/07 12:44:08;;;;;;;6.18;4.50;;;15.90;73.30;;;;;;4885310;29;20041;-87
2021/10/07 12:46:48;;;;;;;5.05;3.97;;;15.90;73.00;;;;;;4869237;29;20036;-87
2021/10/07 12:49:14;;;;;;;6.03;4.18;;;15.90;73.20;;;;;;4869858;29;20032;-87
2021/10/07 12:51:46;;;;;;;5.72;4.22;;;16.00;73.10;;;;;;4884864;29;20040;-88
2021/10/07 12:54:16;;;;;;;5.70;4.05;;;16.00;73.10;;;;;;4885111;29;20032;-89
2021/10/07 12:56:45;;;;;;;5.78;4.15;;;16.10;73.10;;;;;;4885210;29;20036;-88
2021/10/07 12:59:11;;;;;;;6.18;4.78;;;16.10;73.10;;;;;;4884457;29;20478;-88